Time;durP1;ratioP1;P1;durP2;ratioP2;P2;SDS_P1;SDS_P2;PMS_P1;PMS_P2;Temp;Humidity;BMP_temperature;BMP_pressure;BME280_temperature;BME280_humidity;BME280_pressure;Samples;Min_cycle;Max_cycle;Signal;HPM_P1;HPM_P2
2021/03/02 00:00:22;;;;;;;4.43;2.38;;;;;;;2.00;51.23;93947.78;2061909;69;20225;-74
2021/03/02 00:02:48;;;;;;;4.60;2.50;;;;;;;2.37;51.28;93942.72;2061813;69;20157;-74
2021/03/02 00:05:15;;;;;;;5.60;2.20;;;;;;;2.16;51.54;93940.50;2061169;69;20232;-75
2021/03/02 00:07:41;;;;;;;6.90;2.35;;;;;;;2.14;51.25;93948.59;2061805;69;20214;-74
2021/03/02 00:10:12;;;;;;;3.42;1.92;;;;;;;1.97;51.77;93937.72;2061701;69;20610;-76
2021/03/02 00:12:40;;;;;;;2.92;2.15;;;;;;;2.05;51.33;93937.84;2061600;69;20693;-74
2021/03/02 00:15:08;;;;;;;3.92;2.28;;;;;;;2.42;48.44;93948.19;2061834;69;20161;-74
2021/03/02 00:17:35;;;;;;;3.08;2.10;;;;;;;2.39;49.26;93949.28;2061740;69;20207;-74
2021/03/02 00:20:26;;;;;;;4.20;2.15;;;;;;;1.87;51.69;93953.22;2061644;69;20208;-74
2021/03/02 00:23:01;;;;;;;3.63;2.00;;;;;;;2.07;51.13;93949.22;2061749;69;20149;-75
2021/03/02 00:25:31;;;;;;;4.13;2.55;;;;;;;2.16;50.17;93948.84;2061186;69;20161;-73
2021/03/02 00:27:59;;;;;;;4.18;2.10;;;;;;;2.31;50.50;93953.19;2061893;69;20177;-74
2021/03/02 00:30:25;;;;;;;4.30;1.90;;;;;;;2.34;49.24;93952.88;2061696;69;20140;-73
2021/03/02 00:32:51;;;;;;;8.45;1.90;;;;;;;2.19;49.92;93947.75;2061745;69;20149;-73
2021/03/02 00:35:17;;;;;;;4.32;1.92;;;;;;;2.09;49.55;93948.69;2061653;69;20173;-74
2021/03/02 00:37:48;;;;;;;3.30;1.90;;;;;;;2.26;49.40;93949.19;2061636;69;20165;-74
2021/03/02 00:40:16;;;;;;;2.88;1.98;;;;;;;2.07;49.51;93949.22;2061697;69;20647;-73
2021/03/02 00:42:41;;;;;;;3.90;1.90;;;;;;;2.10;49.75;93952.94;2061692;69;20232;-74
2021/03/02 00:45:08;;;;;;;6.60;2.00;;;;;;;1.77;50.34;93954.88;2061757;69;20585;-73
2021/03/02 00:47:34;;;;;;;3.13;2.00;;;;;;;1.91;50.72;93958.50;2058373;69;20141;-73
2021/03/02 00:49:59;;;;;;;3.28;2.00;;;;;;;1.89;51.53;93963.84;2061007;69;20164;-74
2021/03/02 00:52:25;;;;;;;2.40;1.80;;;;;;;2.29;48.67;93956.47;2061714;69;20315;-74
2021/03/02 00:54:51;;;;;;;2.85;1.65;;;;;;;2.37;50.07;93946.25;2061761;69;20146;-73
2021/03/02 00:57:17;;;;;;;2.38;1.70;;;;;;;2.21;49.32;93956.34;2061173;69;20215;-74
2021/03/02 00:59:42;;;;;;;4.07;2.15;;;;;;;1.82;50.25;93954.06;2061072;69;20146;-74
2021/03/02 01:02:10;;;;;;;3.92;1.83;;;;;;;1.91;49.90;93945.34;2061680;69;20611;-76
2021/03/02 01:04:36;;;;;;;2.88;1.90;;;;;;;2.22;49.08;93943.94;2060918;69;20257;-74
2021/03/02 01:07:03;;;;;;;5.20;2.05;;;;;;;2.20;47.92;93943.72;2061082;69;20153;-75
2021/03/02 01:09:30;;;;;;;2.35;1.70;;;;;;;2.61;46.90;93950.19;2061066;69;20129;-73
2021/03/02 01:11:58;;;;;;;3.75;1.67;;;;;;;2.42;48.51;93948.19;2060972;69;20169;-76
2021/03/02 01:14:24;;;;;;;2.15;1.35;;;;;;;2.64;47.20;93949.16;2061084;69;20149;-74
2021/03/02 01:16:50;;;;;;;2.60;1.73;;;;;;;2.00;49.49;93950.53;2061645;69;20595;-74
2021/03/02 01:19:16;;;;;;;2.90;1.83;;;;;;;2.06;50.77;93944.16;2061631;69;20152;-74
2021/03/02 01:21:42;;;;;;;3.70;1.90;;;;;;;2.34;47.25;93944.56;2061441;69;20176;-74
2021/03/02 01:24:10;;;;;;;2.28;1.40;;;;;;;2.55;46.84;93939.16;2061682;69;20617;-74
2021/03/02 01:26:36;;;;;;;3.53;1.73;;;;;;;1.87;49.31;93946.94;2061523;69;20158;-74
2021/03/02 01:29:02;;;;;;;2.95;1.90;;;;;;;1.78;50.39;93948.78;2061690;69;20200;-74
2021/03/02 01:31:28;;;;;;;3.60;1.90;;;;;;;2.16;48.93;93948.09;2061641;69;20529;-74
2021/03/02 01:33:54;;;;;;;2.80;1.60;;;;;;;1.97;49.11;93943.28;2061592;69;20185;-75
2021/03/02 01:36:19;;;;;;;3.30;1.65;;;;;;;2.11;48.61;93946.09;2061487;69;20188;-74
2021/03/02 01:38:45;;;;;;;2.63;1.70;;;;;;;2.42;47.73;93942.63;2061629;69;20560;-75
2021/03/02 01:41:11;;;;;;;2.53;1.50;;;;;;;2.42;48.98;93942.63;2061547;69;20584;-75
2021/03/02 01:43:37;;;;;;;2.90;1.73;;;;;;;2.00;49.15;93944.25;2061435;69;20159;-74
2021/03/02 01:46:04;;;;;;;3.42;2.00;;;;;;;2.12;49.51;93947.63;2061440;69;20577;-75
2021/03/02 01:48:32;;;;;;;3.00;1.63;;;;;;;2.04;49.77;93942.66;2061484;69;20153;-73
2021/03/02 01:50:58;;;;;;;3.10;1.77;;;;;;;1.95;48.79;93945.81;2061502;69;20136;-73
2021/03/02 01:53:23;;;;;;;3.90;1.73;;;;;;;1.72;50.18;93942.56;2061608;69;20524;-73
2021/03/02 01:55:49;;;;;;;2.70;1.80;;;;;;;1.90;50.17;93946.66;2061048;69;20225;-73
2021/03/02 01:58:15;;;;;;;2.58;1.60;;;;;;;1.83;51.49;93943.69;2061491;69;20136;-74
2021/03/02 02:00:41;;;;;;;5.30;2.10;;;;;;;1.72;50.15;93941.81;2061499;69;20172;-74
2021/03/02 02:03:06;;;;;;;3.22;1.98;;;;;;;1.79;51.94;93938.47;2061609;69;20157;-74
2021/03/02 02:05:40;;;;;;;4.20;1.50;;;;;;;1.89;51.94;93944.41;2061330;69;20151;-74
2021/03/02 02:08:10;;;;;;;2.83;1.60;;;;;;;1.63;51.74;93940.16;2061547;69;20137;-78
2021/03/02 02:10:56;;;;;;;5.63;2.28;;;;;;;1.40;52.22;93944.47;2061390;69;20153;-75
2021/03/02 02:13:42;;;;;;;3.53;1.90;;;;;;;1.47;52.96;93943.88;2061509;69;20141;-74
2021/03/02 02:16:10;;;;;;;5.05;1.80;;;;;;;1.52;51.51;93935.50;2061607;69;20141;-77
2021/03/02 02:18:38;;;;;;;3.67;1.80;;;;;;;1.48;52.57;93943.34;2061484;69;20211;-77
2021/03/02 02:21:07;;;;;;;2.72;1.58;;;;;;;1.56;52.14;93945.53;2060907;69;20149;-74
2021/03/02 02:23:48;;;;;;;2.72;1.85;;;;;;;1.68;51.09;93938.59;2061506;69;20204;-76
2021/03/02 02:26:13;;;;;;;6.35;1.83;;;;;;;1.61;51.60;93947.53;2061445;69;20876;-75
2021/03/02 02:28:41;;;;;;;2.28;1.67;;;;;;;1.50;53.31;93943.56;2061617;69;20144;-76
2021/03/02 02:31:08;;;;;;;4.28;1.88;;;;;;;1.58;52.02;93946.53;2061427;69;20168;-76
2021/03/02 02:33:39;;;;;;;3.50;1.70;;;;;;;1.43;51.39;93944.16;2061475;69;20145;-74
2021/03/02 02:36:08;;;;;;;2.65;1.85;;;;;;;1.18;52.54;93948.22;2060823;69;20266;-75
2021/03/02 02:38:36;;;;;;;2.80;1.52;;;;;;;1.19;52.74;93944.94;2061508;69;20149;-75
2021/03/02 02:41:04;;;;;;;2.92;1.75;;;;;;;1.26;53.19;93949.88;2060758;69;20545;-73
2021/03/02 02:43:31;;;;;;;3.58;1.70;;;;;;;1.17;52.55;93943.94;2061402;69;20145;-72
2021/03/02 02:45:57;;;;;;;5.78;1.70;;;;;;;1.15;52.55;93941.69;2061546;69;20192;-74
2021/03/02 02:48:24;;;;;;;3.97;1.90;;;;;;;0.90;54.72;93934.63;2061502;69;20587;-74
2021/03/02 02:50:53;;;;;;;4.32;1.90;;;;;;;1.01;54.63;93934.53;2061299;69;20199;-74
2021/03/02 02:53:20;;;;;;;3.60;1.77;;;;;;;0.89;54.34;93941.44;2061346;69;20145;-74
2021/03/02 02:55:47;;;;;;;3.05;1.90;;;;;;;0.96;54.35;93938.84;2061429;69;20149;-74
2021/03/02 02:58:16;;;;;;;3.30;1.60;;;;;;;1.03;53.55;93934.75;2063741;69;20617;-74
2021/03/02 03:00:43;;;;;;;3.58;1.73;;;;;;;1.12;53.47;93933.66;2061505;69;20153;-74
2021/03/02 03:03:14;;;;;;;2.92;1.58;;;;;;;0.66;53.37;93940.88;2061444;69;20168;-73
2021/03/02 03:05:46;;;;;;;4.03;1.60;;;;;;;0.98;52.87;93941.09;2061458;69;20136;-75
2021/03/02 03:08:17;;;;;;;4.10;1.65;;;;;;;1.07;53.77;93946.31;2061345;69;20160;-75
2021/03/02 03:10:45;;;;;;;4.57;1.90;;;;;;;1.25;51.52;93945.63;2061399;69;20189;-74
2021/03/02 03:13:16;;;;;;;3.55;2.10;;;;;;;1.08;52.96;93942.25;2061389;69;20236;-75
2021/03/02 03:15:49;;;;;;;3.60;1.90;;;;;;;1.22;52.75;93943.88;2061442;69;20180;-75
2021/03/02 03:18:21;;;;;;;3.63;1.73;;;;;;;1.27;52.62;93950.63;2061428;69;20161;-75
2021/03/02 03:20:51;;;;;;;2.70;1.67;;;;;;;0.76;53.65;93950.34;2061365;69;20296;-73
2021/03/02 03:23:18;;;;;;;3.72;1.60;;;;;;;0.93;54.52;93950.22;2061784;69;20173;-73
2021/03/02 03:25:44;;;;;;;4.20;1.50;;;;;;;0.79;53.88;93956.91;2061931;69;20149;-76
2021/03/02 03:28:14;;;;;;;2.10;1.60;;;;;;;1.11;54.19;93960.63;2062081;69;20137;-74
2021/03/02 03:30:40;;;;;;;2.30;1.40;;;;;;;0.97;53.15;93959.00;2062045;69;20145;-75
2021/03/02 03:33:09;;;;;;;2.63;1.73;;;;;;;0.93;53.37;93955.75;2062146;69;20694;-75
2021/03/02 03:35:36;;;;;;;4.05;1.50;;;;;;;0.87;52.77;93968.91;2061886;69;20169;-75
2021/03/02 03:38:01;;;;;;;2.78;1.70;;;;;;;0.92;54.83;93966.13;2062030;69;20593;-74
2021/03/02 03:40:27;;;;;;;3.60;1.80;;;;;;;0.57;55.15;93968.91;2062030;69;20171;-76
2021/03/02 03:42:53;;;;;;;2.20;1.58;;;;;;;0.74;54.95;93961.97;2062080;69;20142;-75
2021/03/02 03:45:18;;;;;;;3.85;1.85;;;;;;;0.76;54.51;93962.19;2062241;69;20563;-77
2021/03/02 03:47:46;;;;;;;3.08;1.70;;;;;;;0.78;54.60;93964.47;2062042;69;20137;-77
2021/03/02 03:50:14;;;;;;;2.35;1.55;;;;;;;0.66;54.12;93961.03;2061929;69;20234;-76
2021/03/02 03:52:43;;;;;;;4.03;1.70;;;;;;;0.86;53.68;93970.94;2061485;69;20247;-76
2021/03/02 03:55:11;;;;;;;3.85;1.80;;;;;;;0.72;55.77;93969.28;2061497;69;20612;-75
2021/03/02 03:57:38;;;;;;;2.38;1.60;;;;;;;0.69;55.26;93968.31;2062024;69;20169;-76
2021/03/02 04:00:06;;;;;;;2.97;1.70;;;;;;;0.73;55.69;93963.25;2062135;69;20145;-77
2021/03/02 04:02:34;;;;;;;2.22;1.60;;;;;;;0.27;55.85;93964.06;2062163;69;20149;-76
2021/03/02 04:05:05;;;;;;;2.67;1.75;;;;;;;0.37;56.19;93964.53;2061796;69;20657;-76
2021/03/02 04:07:35;;;;;;;2.63;1.70;;;;;;;0.46;55.37;93973.28;2062083;69;20185;-75
2021/03/02 04:10:04;;;;;;;3.85;1.60;;;;;;;0.19;55.82;93974.94;2064263;69;20236;-78
2021/03/02 04:12:37;;;;;;;3.92;2.30;;;;;;;0.31;57.05;93983.19;2058681;69;20136;-76
2021/03/02 04:15:03;;;;;;;;;;;;;;;0.45;55.54;93984.84;2062152;69;20233;-76
2021/03/02 04:17:29;;;;;;;8.63;4.28;;;;;;;0.52;55.84;93983.56;2062107;69;20197;-77
2021/03/02 04:19:58;;;;;;;6.50;3.33;;;;;;;0.52;54.85;93981.53;2061846;69;20149;-78
2021/03/02 04:22:24;;;;;;;5.40;3.10;;;;;;;0.50;55.91;93984.84;2061978;69;20148;-76
2021/03/02 04:24:51;;;;;;;11.23;4.50;;;;;;;0.22;56.25;93981.47;2062051;69;20233;-77
2021/03/02 04:27:17;;;;;;;8.40;3.65;;;;;;;0.17;56.10;93985.78;2061898;69;20169;-76
2021/03/02 04:29:42;;;;;;;4.90;2.75;;;;;;;0.28;56.82;93982.22;2062038;69;20215;-76
2021/03/02 04:32:08;;;;;;;7.22;2.70;;;;;;;0.13;55.97;93985.28;2061920;69;20223;-76
2021/03/02 04:34:34;;;;;;;5.72;3.00;;;;;;;0.18;55.31;93986.53;2061787;69;20129;-76
2021/03/02 04:36:59;;;;;;;9.07;4.03;;;;;;;0.35;56.84;93984.41;2061849;69;20153;-75
2021/03/02 04:39:25;;;;;;;7.93;4.50;;;;;;;0.32;56.93;93977.16;2061932;69;20144;-75
2021/03/02 04:41:50;;;;;;;11.88;4.10;;;;;;;0.35;56.03;93984.41;2061927;69;20218;-77
2021/03/02 04:44:16;;;;;;;9.27;3.97;;;;;;;0.45;54.70;93982.81;2061906;69;20137;-76
2021/03/02 04:46:41;;;;;;;6.47;3.75;;;;;;;0.32;55.61;93993.78;2064201;69;20138;-76
2021/03/02 04:49:07;;;;;;;9.30;4.00;;;;;;;0.26;56.36;93995.81;2061860;69;20248;-77
2021/03/02 04:51:33;;;;;;;11.48;4.35;;;;;;;0.36;56.68;93999.00;2061783;69;20232;-75
2021/03/02 04:53:58;;;;;;;8.05;4.32;;;;;;;0.20;56.09;94000.63;2061914;69;20231;-76
2021/03/02 04:56:24;;;;;;;9.98;4.30;;;;;;;0.25;56.34;94002.59;2061943;69;20521;-74
2021/03/02 04:58:49;;;;;;;8.52;4.53;;;;;;;0.23;56.04;94003.13;2061418;69;20589;-76
2021/03/02 05:01:15;;;;;;;6.68;3.30;;;;;;;0.27;56.73;94002.84;2061950;69;20244;-75
2021/03/02 05:03:41;;;;;;;6.20;3.35;;;;;;;0.37;55.42;94004.06;2061798;69;20211;-76
2021/03/02 05:06:06;;;;;;;10.40;3.33;;;;;;;0.19;55.23;93996.34;2061691;69;20148;-76
2021/03/02 05:08:32;;;;;;;8.68;3.50;;;;;;;0.27;54.92;94002.09;2061872;69;20521;-77
2021/03/02 05:10:57;;;;;;;9.18;3.50;;;;;;;0.17;55.64;94004.41;2061997;69;20134;-78
2021/03/02 05:13:23;;;;;;;8.57;3.20;;;;;;;0.24;57.01;93999.09;2061771;69;20188;-75
2021/03/02 05:15:48;;;;;;;8.23;3.03;;;;;;;0.18;56.00;94009.47;2061860;69;20149;-76
2021/03/02 05:18:14;;;;;;;5.72;2.17;;;;;;;0.73;53.39;94006.81;2062025;69;20151;-78
2021/03/02 05:20:39;;;;;;;4.63;2.10;;;;;;;0.82;53.67;94008.53;2061811;69;20141;-76
2021/03/02 05:23:05;;;;;;;12.73;5.88;;;;;;;0.79;52.09;94001.25;2061810;69;20196;-76
2021/03/02 05:25:31;;;;;;;7.75;3.53;;;;;;;0.62;53.40;94009.69;2061883;69;20227;-78
2021/03/02 05:27:56;;;;;;;9.40;4.38;;;;;;;0.59;52.95;94003.13;2061745;69;20172;-77
2021/03/02 05:30:22;;;;;;;7.75;3.45;;;;;;;0.52;54.13;94008.50;2061950;69;20200;-78
2021/03/02 05:32:48;;;;;;;8.75;3.90;;;;;;;0.68;54.38;94000.06;2061921;69;20508;-76
2021/03/02 05:35:13;;;;;;;5.55;2.83;;;;;;;0.76;52.79;94001.00;2061710;69;20141;-77
2021/03/02 05:37:39;;;;;;;2.90;1.65;;;;;;;1.04;51.78;93993.72;2061343;69;20156;-78
2021/03/02 05:40:06;;;;;;;0.95;0.63;;;;;;;1.13;51.88;93994.16;2061873;69;20664;-77
2021/03/02 05:42:34;;;;;;;1.38;0.60;;;;;;;1.14;50.91;93998.41;2062058;69;20236;-76
2021/03/02 05:45:02;;;;;;;7.28;2.17;;;;;;;0.88;52.14;93998.91;2061805;69;20291;-77
2021/03/02 05:47:28;;;;;;;10.95;3.25;;;;;;;0.75;52.65;94012.63;2061788;69;20259;-76
2021/03/02 05:49:54;;;;;;;8.48;3.38;;;;;;;0.53;53.15;94010.00;2061127;69;20608;-78
2021/03/02 05:52:20;;;;;;;5.90;2.67;;;;;;;0.94;51.96;94007.94;2061742;69;20497;-75
2021/03/02 05:54:46;;;;;;;5.43;2.20;;;;;;;0.94;52.05;94016.25;2061798;69;20219;-76
2021/03/02 05:57:12;;;;;;;18.27;9.63;;;;;;;0.61;52.25;94017.25;2061750;69;20149;-77
2021/03/02 05:59:39;;;;;;;36.30;15.57;;;;;;;0.63;52.91;94017.47;2061760;69;20157;-78
2021/03/02 06:02:04;;;;;;;26.35;11.68;;;;;;;0.78;52.75;94022.69;2061749;69;20243;-77
2021/03/02 06:04:30;;;;;;;31.33;12.48;;;;;;;0.71;52.90;94020.47;2061687;69;20497;-77
2021/03/02 06:07:03;;;;;;;20.98;9.43;;;;;;;0.74;52.89;94022.97;2061638;69;20153;-77
2021/03/02 06:09:29;;;;;;;17.13;7.30;;;;;;;0.84;52.20;94028.94;2061721;69;20154;-79
2021/03/02 06:12:04;;;;;;;10.25;5.45;;;;;;;0.65;52.66;94026.03;2061683;69;20142;-79
2021/03/02 06:14:32;;;;;;;12.23;4.63;;;;;;;0.39;53.42;94025.69;2061695;69;20149;-76
2021/03/02 06:16:58;;;;;;;23.17;7.45;;;;;;;0.32;54.80;94040.09;2061720;69;20624;-76
2021/03/02 06:19:43;;;;;;;15.80;7.18;;;;;;;0.60;55.05;94035.16;2061744;69;20148;-76
2021/03/02 06:22:35;;;;;;;18.35;7.18;;;;;;;0.53;54.48;94038.47;2061688;69;20141;-75
2021/03/02 06:25:02;;;;;;;16.27;6.00;;;;;;;0.50;54.97;94045.03;2061805;69;20235;-76
2021/03/02 06:27:30;;;;;;;18.27;6.38;;;;;;;0.64;54.36;94038.41;2061670;69;20206;-75
2021/03/02 06:30:12;;;;;;;25.15;7.05;;;;;;;0.51;54.04;94038.22;2061665;69;20140;-76
2021/03/02 06:32:43;;;;;;;21.38;9.90;;;;;;;0.75;52.92;94043.88;2061640;69;20152;-75
2021/03/02 06:35:10;;;;;;;26.77;10.45;;;;;;;0.63;54.57;94041.69;2061595;69;20224;-77
2021/03/02 06:37:44;;;;;;;28.83;9.70;;;;;;;0.55;54.70;94049.03;2061671;69;20188;-75
2021/03/02 06:40:12;;;;;;;33.80;10.85;;;;;;;0.67;54.63;94053.25;2061641;69;20589;-76
2021/03/02 06:42:42;;;;;;;28.58;10.20;;;;;;;0.43;55.33;94057.41;2061629;69;20152;-76
2021/03/02 06:45:13;;;;;;;23.13;10.13;;;;;;;0.58;55.10;94053.56;2061656;69;20283;-76
2021/03/02 06:47:42;;;;;;;27.92;10.25;;;;;;;0.49;54.83;94063.66;2061644;69;20145;-80
2021/03/02 06:50:13;;;;;;;41.15;21.15;;;;;;;0.68;54.98;94057.50;2061590;69;20161;-81
2021/03/02 06:52:41;;;;;;;22.83;11.98;;;;;;;0.68;54.25;94061.03;2061657;69;20156;-76
2021/03/02 06:55:18;;;;;;;21.83;12.10;;;;;;;0.80;53.93;94060.97;2061614;69;20133;-78
2021/03/02 06:57:45;;;;;;;23.48;10.02;;;;;;;0.63;53.87;94047.97;2062449;69;20153;-78
2021/03/02 07:00:11;;;;;;;19.05;8.48;;;;;;;0.71;54.46;94062.78;2062696;69;20156;-78
2021/03/02 07:02:44;;;;;;;19.90;7.57;;;;;;;0.79;53.73;94060.22;2062735;69;20164;-79
2021/03/02 07:05:10;;;;;;;23.20;8.55;;;;;;;0.91;54.20;94066.44;2062564;69;20181;-79
2021/03/02 07:07:37;;;;;;;19.48;8.80;;;;;;;0.56;54.96;94072.72;2062740;69;20681;-79
2021/03/02 07:10:05;;;;;;;24.20;8.95;;;;;;;0.82;54.71;94053.63;2063517;69;20168;-79
2021/03/02 07:12:37;;;;;;;21.10;11.65;;;;;;;0.64;54.79;94060.59;2062789;69;20239;-79
2021/03/02 07:15:07;;;;;;;101.75;66.78;;;;;;;0.52;55.24;94061.16;2062731;69;20643;-82
2021/03/02 07:17:36;;;;;;;39.00;21.10;;;;;;;0.55;55.06;94058.13;2062724;69;20236;-80
2021/03/02 07:20:04;;;;;;;31.98;16.73;;;;;;;0.73;54.81;94063.03;2062556;69;20228;-79
2021/03/02 07:22:31;;;;;;;32.13;12.40;;;;;;;0.82;54.42;94063.97;2062638;69;20524;-80
2021/03/02 07:25:01;;;;;;;41.10;17.55;;;;;;;0.96;54.92;94060.88;2062627;69;20236;-80
2021/03/02 07:27:29;;;;;;;37.25;17.35;;;;;;;0.83;55.06;94066.25;2062680;69;20240;-79
2021/03/02 07:29:59;;;;;;;30.25;11.38;;;;;;;0.93;54.59;94069.47;2062709;69;20210;-78
2021/03/02 07:32:25;;;;;;;32.40;10.27;;;;;;;0.93;54.36;94066.69;2062602;69;20152;-80
2021/03/02 07:34:52;;;;;;;35.22;9.25;;;;;;;0.80;54.60;94064.50;2062524;69;20256;-80
2021/03/02 07:37:22;;;;;;;21.73;7.75;;;;;;;0.86;54.70;94064.47;2062771;69;20161;-80
2021/03/02 07:40:05;;;;;;;21.70;7.38;;;;;;;0.88;55.71;94068.22;2063031;69;20635;-77
2021/03/02 07:42:31;;;;;;;;;;;;;;;0.65;55.74;94069.66;2063699;69;20137;-77
2021/03/02 07:45:13;;;;;;;41.70;15.02;;;;;;;0.91;55.08;94066.44;2062646;69;20112;-80
2021/03/02 07:47:49;;;;;;;29.55;11.25;;;;;;;0.96;55.43;94066.41;2062615;69;20152;-77
2021/03/02 07:50:15;;;;;;;22.77;9.80;;;;;;;1.12;54.43;94069.56;2062506;69;20153;-77
2021/03/02 07:52:40;;;;;;;28.10;10.07;;;;;;;1.11;55.07;94068.81;2062561;69;20137;-79
2021/03/02 07:55:17;;;;;;;34.88;14.02;;;;;;;0.99;55.51;94068.13;2062571;69;20145;-77
2021/03/02 07:57:45;;;;;;;26.48;10.63;;;;;;;1.07;53.84;94067.59;2062612;69;20278;-81
2021/03/02 08:00:14;;;;;;;40.75;14.77;;;;;;;1.15;54.39;94060.22;2062703;69;20609;-77
2021/03/02 08:02:40;;;;;;;52.38;21.05;;;;;;;1.23;53.77;94059.13;2062617;69;20171;-77
2021/03/02 08:05:27;;;;;;;48.88;23.85;;;;;;;1.29;53.69;94059.09;2062516;69;20597;-77
2021/03/02 08:08:24;;;;;;;50.83;24.20;;;;;;;1.43;52.49;94055.19;2062361;69;20217;-78
2021/03/02 08:10:57;;;;;;;55.25;26.67;;;;;;;1.34;53.60;94065.88;2062093;69;20520;-77
2021/03/02 08:13:33;;;;;;;;;;;;;;;1.29;54.82;94059.09;2064377;69;20160;-75
2021/03/02 08:15:59;;;;;;;36.83;15.15;;;;;;;0.98;54.88;94065.88;2061941;69;20141;-76
2021/03/02 08:18:34;;;;;;;40.70;16.95;;;;;;;1.34;54.02;94065.88;2061972;69;20172;-78
2021/03/02 08:21:06;;;;;;;47.13;19.00;;;;;;;2.08;55.04;94066.63;2061803;69;20165;-76
2021/03/02 08:23:53;;;;;;;53.65;26.88;;;;;;;3.39;51.82;94053.94;2061903;69;20236;-77
2021/03/02 08:26:35;;;;;;;51.88;23.55;;;;;;;4.47;50.76;94068.16;2061887;69;20155;-76
2021/03/02 08:29:18;;;;;;;34.75;13.73;;;;;;;5.01;47.83;94070.31;2062015;69;20153;-77
2021/03/02 08:31:49;;;;;;;23.02;10.05;;;;;;;4.95;45.52;94058.53;2061909;69;20241;-76
2021/03/02 08:34:20;;;;;;;24.60;8.75;;;;;;;5.85;44.58;94062.69;2061923;69;20191;-78
2021/03/02 08:36:52;;;;;;;23.95;8.50;;;;;;;6.40;43.76;94049.84;2061830;69;20140;-75
2021/03/02 08:39:20;;;;;;;27.63;8.45;;;;;;;7.05;43.19;94053.28;2062044;69;20629;-77
2021/03/02 08:41:48;;;;;;;34.55;10.15;;;;;;;6.82;41.80;94064.41;2062114;69;20155;-77
2021/03/02 08:44:25;;;;;;;29.65;9.75;;;;;;;7.58;41.99;94056.19;2061922;69;20237;-76
2021/03/02 08:46:55;;;;;;;22.20;8.50;;;;;;;8.06;39.50;94055.63;2061877;69;20212;-76
2021/03/02 08:49:22;;;;;;;18.70;7.95;;;;;;;9.14;38.25;94062.50;2061879;69;20176;-79
2021/03/02 08:51:48;;;;;;;30.80;8.45;;;;;;;8.83;38.48;94061.84;2061744;69;20177;-74
2021/03/02 08:54:14;;;;;;;21.60;8.32;;;;;;;9.23;38.39;94064.69;2061842;69;20145;-78
2021/03/02 08:56:40;;;;;;;29.02;8.13;;;;;;;10.00;37.71;94062.13;2061903;69;20156;-80
2021/03/02 08:59:11;;;;;;;27.25;8.77;;;;;;;10.32;37.28;94064.13;2061885;69;20153;-81
2021/03/02 09:01:38;;;;;;;22.45;7.50;;;;;;;10.78;35.42;94062.94;2061850;69;20159;-79
2021/03/02 09:04:18;;;;;;;26.10;9.52;;;;;;;10.91;34.26;94057.72;2061802;69;20164;-77
2021/03/02 09:06:51;;;;;;;18.73;8.23;;;;;;;10.67;34.94;94056.47;2061799;69;20163;-77
2021/03/02 09:09:19;;;;;;;21.30;9.27;;;;;;;11.03;34.89;94052.28;2061872;69;20164;-81
2021/03/02 09:11:47;;;;;;;13.65;7.43;;;;;;;11.24;34.40;94040.59;2061940;69;20232;-80
2021/03/02 09:14:36;;;;;;;18.40;7.40;;;;;;;12.43;32.61;94048.41;2061858;69;20149;-79
2021/03/02 09:17:06;;;;;;;16.50;6.85;;;;;;;12.81;30.30;94055.44;2061863;69;20141;-79
2021/03/02 09:19:42;;;;;;;15.55;7.40;;;;;;;13.43;29.61;94057.81;2062047;69;20145;-79
2021/03/02 09:22:18;;;;;;;13.40;5.30;;;;;;;13.78;29.82;94046.13;2061841;69;20204;-77
2021/03/02 09:24:48;;;;;;;19.00;5.20;;;;;;;12.40;30.39;94043.91;2061850;69;20153;-79
2021/03/02 09:27:16;;;;;;;16.90;4.18;;;;;;;13.55;28.28;94044.53;2061831;69;20597;-79
2021/03/02 09:29:44;;;;;;;11.55;2.80;;;;;;;13.81;26.85;94042.81;2061844;69;20151;-78
2021/03/02 09:32:11;;;;;;;8.75;1.90;;;;;;;13.48;25.62;94043.38;2061829;69;20149;-76
2021/03/02 09:34:43;;;;;;;6.78;2.17;;;;;;;14.64;26.03;94039.31;2061835;69;20153;-79
2021/03/02 09:37:17;;;;;;;19.55;3.47;;;;;;;15.59;25.92;94034.81;2061915;69;20168;-80
2021/03/02 09:39:58;;;;;;;14.80;3.45;;;;;;;15.17;25.42;94042.06;2061825;69;20141;-79
2021/03/02 09:42:27;;;;;;;4.68;2.05;;;;;;;15.33;24.12;94031.03;2061788;69;20168;-78
2021/03/02 09:44:56;;;;;;;4.18;2.13;;;;;;;15.33;25.45;94034.59;2061784;69;20141;-78
2021/03/02 09:47:29;;;;;;;2.67;1.40;;;;;;;16.60;23.40;94036.75;2061289;69;20228;-81
2021/03/02 09:49:59;;;;;;;;;;;;;;;16.81;22.40;94038.72;2061876;69;20165;-79
2021/03/02 09:52:27;;;;;;;5.25;2.00;;;;;;;16.75;21.45;94033.41;2064003;69;20133;-79
2021/03/02 09:55:19;;;;;;;9.73;1.95;;;;;;;16.74;21.78;94024.16;2061256;69;20220;-79
2021/03/02 09:57:52;;;;;;;6.35;2.63;;;;;;;16.85;21.85;94022.63;2061865;69;20154;-82
2021/03/02 10:00:18;;;;;;;;;;;;;;;16.95;22.10;94023.25;2062106;69;20169;-78
2021/03/02 10:02:51;;;;;;;4.55;1.40;;;;;;;17.93;21.05;94028.00;2061885;69;20477;-78
2021/03/02 10:05:35;;;;;;;;;;;;;;;18.09;20.89;94034.59;2061869;69;20154;-77
2021/03/02 10:08:21;;;;;;;10.70;4.28;;;;;;;17.43;21.16;94038.78;2061756;69;20093;-77
2021/03/02 10:10:47;;;;;;;20.55;9.13;;;;;;;18.36;20.40;94036.72;2059836;69;20153;-81
2021/03/02 10:13:26;;;;;;;15.02;5.38;;;;;;;19.66;20.30;94039.06;2061740;69;20248;-80
2021/03/02 10:16:14;;;;;;;14.85;3.72;;;;;;;17.41;20.55;94041.50;2061748;69;20137;-79
2021/03/02 10:18:51;;;;;;;1.98;0.70;;;;;;;16.86;20.53;94031.91;2061767;69;20536;-78
2021/03/02 10:21:18;;;;;;;1.15;0.80;;;;;;;18.83;20.01;94033.53;2061681;69;20588;-76
2021/03/02 10:23:45;;;;;;;1.85;0.70;;;;;;;20.22;19.06;94040.25;2061747;69;20227;-82
2021/03/02 10:26:18;;;;;;;2.70;1.02;;;;;;;19.67;18.57;94034.81;2061767;69;20165;-79
2021/03/02 10:28:44;;;;;;;;;;;;;;;22.11;16.37;94033.28;2062144;69;20152;-79
2021/03/02 10:31:09;;;;;;;2.22;1.00;;;;;;;21.35;17.33;94032.41;2061588;69;20049;-81
2021/03/02 10:33:35;;;;;;;2.08;0.70;;;;;;;22.52;15.62;94032.00;2061651;69;20279;-76
2021/03/02 10:36:01;;;;;;;2.28;1.00;;;;;;;23.03;14.71;94031.72;2063824;69;20223;-79
2021/03/02 10:38:26;;;;;;;3.00;1.10;;;;;;;22.85;15.33;94025.28;2061825;69;20153;-84
2021/03/02 10:40:52;;;;;;;3.15;0.85;;;;;;;22.99;15.31;94016.47;2061746;69;20146;-79
2021/03/02 10:43:17;;;;;;;2.08;1.05;;;;;;;24.06;14.36;94024.38;2061800;69;20543;-85
2021/03/02 10:45:43;;;;;;;3.28;1.70;;;;;;;21.73;15.94;94021.78;2061894;69;20153;-78
2021/03/02 10:48:10;;;;;;;3.42;1.20;;;;;;;22.27;15.05;94016.00;2061261;69;20144;-77
2021/03/02 10:50:37;;;;;;;3.28;0.70;;;;;;;23.10;14.93;94008.97;2061651;69;20506;-81
2021/03/02 10:53:02;;;;;;;2.85;0.90;;;;;;;25.81;13.02;94023.59;2061628;69;20509;-78
2021/03/02 10:55:28;;;;;;;5.57;1.40;;;;;;;26.76;12.27;94023.59;2061659;69;20176;-74
2021/03/02 10:57:54;;;;;;;3.85;0.90;;;;;;;32.02;10.25;94029.50;2062292;69;20152;-74
2021/03/02 11:00:19;;;;;;;5.32;1.55;;;;;;;33.85;9.41;94025.38;2061859;69;20613;-81
2021/03/02 11:02:45;;;;;;;5.13;1.60;;;;;;;33.54;9.26;94027.78;2061740;69;20598;-75
2021/03/02 11:05:11;;;;;;;1.95;0.90;;;;;;;32.24;8.36;94019.31;2061488;69;20153;-76
2021/03/02 11:07:38;;;;;;;2.58;1.20;;;;;;;35.72;7.36;94033.13;2061687;69;20201;-77
2021/03/02 11:10:05;;;;;;;7.80;1.92;;;;;;;35.26;7.74;94026.38;2061759;69;20164;-81
2021/03/02 11:12:31;;;;;;;5.70;3.60;;;;;;;36.11;7.17;94028.19;2061836;69;20142;-80
2021/03/02 11:14:57;;;;;;;2.78;1.80;;;;;;;37.26;7.25;94026.22;2061898;69;20148;-79
2021/03/02 11:17:23;;;;;;;1.42;1.33;;;;;;;38.27;6.89;94025.50;2061809;69;20580;-80
2021/03/02 11:19:49;;;;;;;1.65;1.38;;;;;;;37.49;7.09;94015.47;2061812;69;20220;-75
2021/03/02 11:22:15;;;;;;;1.27;1.10;;;;;;;37.68;6.50;94012.16;2061661;69;20525;-78
2021/03/02 11:24:41;;;;;;;1.88;1.20;;;;;;;37.63;6.31;94009.28;2061659;69;20204;-79
2021/03/02 11:27:07;;;;;;;1.45;1.20;;;;;;;40.17;6.10;94009.28;2059106;69;20184;-74
2021/03/02 11:29:35;;;;;;;1.77;1.67;;;;;;;39.68;5.99;94004.91;2057896;69;20150;-78
2021/03/02 11:32:04;;;;;;;6.05;1.55;;;;;;;38.12;6.10;94001.59;2057892;69;20158;-79
2021/03/02 11:34:30;;;;;;;4.25;3.42;;;;;;;36.55;6.98;93990.09;2058127;69;20154;-82
2021/03/02 11:36:56;;;;;;;2.72;1.60;;;;;;;36.14;6.62;93985.63;2057400;69;20149;-74
2021/03/02 11:39:21;;;;;;;3.58;2.40;;;;;;;35.63;6.99;93980.50;2058085;69;20145;-74
2021/03/02 11:41:47;;;;;;;1.63;1.40;;;;;;;38.49;6.17;93994.84;2058016;69;20185;-75
2021/03/02 11:44:13;;;;;;;4.00;3.55;;;;;;;37.91;6.45;93983.00;2058335;69;20152;-74
2021/03/02 11:46:40;;;;;;;11.48;10.25;;;;;;;41.53;5.24;93979.56;2058503;69;20553;-73